EZY2066 LGKO-EGCC
Flight info
| Callsign | EZY2066 |
|---|---|
| Flight time | 1h 10m |
| Altitude | 36000 |
| Route | LARKI3A LARKI UL609 MES DCT KOROS DCT DISOR DCT LONTA UL608 DOLEV DCT YUYUH DCT GENLU DCT PODOB DCT BOSNA DCT MARIL DCT KUSIB DCT GORPA DCT MODSA DCT BABEG DCT LIRSU DCT DENUT L610 LAM UN57 WELIN T420 ELVOS ELVOS1M |
| Aircraft | A319/M-SDE3FGHIRWY/LB1 |
Departure
| Time | 2026-05-05 07:31 |
|---|---|
| Airport | Kos International Airport "Ippokratis" (LGKO) |
Arrival
| Time | 2026-05-05 08:42 |
|---|---|
| Airport | Manchester Airport (EGCC) |
| Time | Latitude | Longitude | Altitude | Speed | Heading |
|---|---|---|---|---|---|
| 2026-05-05 07:10 | 36.80009 | 27.09033 | 419 ft | 0 kts | 58° |
| 2026-05-05 07:22 | 36.80002 | 27.09019 | 411 ft | 4 kts | 58° |
| 2026-05-05 07:23 | 36.79990 | 27.08996 | 409 ft | 4 kts | 59° |
| 2026-05-05 07:23 | 36.79981 | 27.08967 | 408 ft | 4 kts | 93° |
| 2026-05-05 07:23 | 36.79990 | 27.08940 | 409 ft | 3 kts | 147° |
| 2026-05-05 07:23 | 36.80006 | 27.08928 | 408 ft | 0 kts | 148° |
| 2026-05-05 07:25 | 36.79986 | 27.08942 | 416 ft | 8 kts | 149° |
| 2026-05-05 07:26 | 36.79935 | 27.08976 | 419 ft | 9 kts | 161° |
| 2026-05-05 07:26 | 36.79868 | 27.08985 | 412 ft | 10 kts | 174° |
| 2026-05-05 07:26 | 36.79793 | 27.08994 | 414 ft | 11 kts | 175° |
| 2026-05-05 07:26 | 36.79708 | 27.08989 | 419 ft | 13 kts | 181° |
| 2026-05-05 07:27 | 36.79586 | 27.09013 | 414 ft | 22 kts | 153° |
| 2026-05-05 07:27 | 36.79441 | 27.09128 | 412 ft | 25 kts | 148° |
| 2026-05-05 07:27 | 36.79287 | 27.09248 | 409 ft | 27 kts | 148° |
| 2026-05-05 07:27 | 36.79121 | 27.09377 | 402 ft | 29 kts | 148° |
| 2026-05-05 07:28 | 36.78944 | 27.09514 | 397 ft | 30 kts | 148° |
| 2026-05-05 07:28 | 36.78765 | 27.09653 | 393 ft | 31 kts | 148° |
| 2026-05-05 07:28 | 36.78603 | 27.09764 | 391 ft | 21 kts | 176° |
| 2026-05-05 07:28 | 36.78550 | 27.09802 | 388 ft | 8 kts | 91° |
| 2026-05-05 07:29 | 36.78582 | 27.09810 | 389 ft | 5 kts | 327° |
| 2026-05-05 07:29 | 36.78605 | 27.09780 | 390 ft | 5 kts | 315° |
| 2026-05-05 07:29 | 36.78620 | 27.09766 | 391 ft | 0 kts | 328° |
| 2026-05-05 07:30 | 36.78623 | 27.09765 | 391 ft | 5 kts | 328° |
| 2026-05-05 07:30 | 36.78877 | 27.09567 | 396 ft | 82 kts | 328° |
| 2026-05-05 07:31 | 36.79559 | 27.09037 | 417 ft | 145 kts | 328° |
| 2026-05-05 07:31 | 36.80505 | 27.08322 | 794 ft | 163 kts | 334° |
| 2026-05-05 07:31 | 36.81397 | 27.07489 | 1642 ft | 162 kts | 308° |
| 2026-05-05 07:31 | 36.81822 | 27.06127 | 1892 ft | 191 kts | 276° |
| 2026-05-05 07:32 | 36.82044 | 27.04414 | 2373 ft | 200 kts | 291° |
| 2026-05-05 07:32 | 36.82500 | 27.02716 | 2935 ft | 216 kts | 292° |
| 2026-05-05 07:32 | 36.83129 | 27.00930 | 3308 ft | 237 kts | 303° |
| 2026-05-05 07:32 | 36.84012 | 26.99127 | 3959 ft | 247 kts | 307° |
| 2026-05-05 07:33 | 36.85043 | 26.97394 | 4789 ft | 249 kts | 320° |
| 2026-05-05 07:33 | 36.88917 | 26.94474 | 6968 ft | 251 kts | 335° |
| 2026-05-05 07:33 | 36.95149 | 26.90167 | 10128 ft | 261 kts | 333° |
| 2026-05-05 07:33 | 37.02167 | 26.85302 | 11737 ft | 317 kts | 333° |
| 2026-05-05 07:34 | 37.10031 | 26.79801 | 14436 ft | 330 kts | 332° |
| 2026-05-05 07:34 | 37.18236 | 26.74073 | 16641 ft | 346 kts | 331° |
| 2026-05-05 07:34 | 37.26835 | 26.68037 | 18736 ft | 362 kts | 330° |
| 2026-05-05 07:34 | 37.35778 | 26.61742 | 20732 ft | 373 kts | 330° |
| 2026-05-05 07:35 | 37.44973 | 26.55271 | 22646 ft | 384 kts | 330° |
| 2026-05-05 07:35 | 37.54442 | 26.48577 | 24315 ft | 395 kts | 330° |
| 2026-05-05 07:35 | 37.64122 | 26.41712 | 25822 ft | 403 kts | 329° |
| 2026-05-05 07:35 | 37.73982 | 26.34680 | 27245 ft | 411 kts | 329° |
| 2026-05-05 07:36 | 37.84076 | 26.27490 | 28620 ft | 419 kts | 329° |
| 2026-05-05 07:36 | 37.94334 | 26.20148 | 29821 ft | 428 kts | 329° |
| 2026-05-05 07:36 | 38.04622 | 26.12761 | 31074 ft | 429 kts | 329° |
| 2026-05-05 07:36 | 38.13690 | 26.03277 | 32759 ft | 417 kts | 318° |
| 2026-05-05 07:37 | 38.22391 | 25.93671 | 33151 ft | 400 kts | 319° |
| 2026-05-05 07:37 | 38.30676 | 25.84300 | 33237 ft | 399 kts | 318° |
| 2026-05-05 07:37 | 38.47172 | 25.65221 | 33155 ft | 403 kts | 318° |
| 2026-05-05 07:38 | 38.63600 | 25.46147 | 33056 ft | 403 kts | 318° |
| 2026-05-05 07:38 | 38.79950 | 25.27015 | 32977 ft | 402 kts | 318° |
| 2026-05-05 07:39 | 38.96199 | 25.07899 | 32902 ft | 398 kts | 318° |
| 2026-05-05 07:39 | 39.12432 | 24.89243 | 33039 ft | 388 kts | 324° |
| 2026-05-05 07:40 | 39.29874 | 24.72296 | 33153 ft | 387 kts | 323° |
| 2026-05-05 07:40 | 39.47298 | 24.55337 | 33191 ft | 393 kts | 323° |
| 2026-05-05 07:41 | 39.64752 | 24.38202 | 32950 ft | 398 kts | 323° |
| 2026-05-05 07:41 | 39.82133 | 24.21037 | 32910 ft | 393 kts | 323° |
| 2026-05-05 07:42 | 39.99466 | 24.03816 | 33036 ft | 386 kts | 323° |
| 2026-05-05 07:42 | 40.16731 | 23.86536 | 33188 ft | 388 kts | 323° |
| 2026-05-05 07:43 | 40.33996 | 23.69153 | 33133 ft | 394 kts | 323° |
| 2026-05-05 07:43 | 40.51273 | 23.51639 | 34263 ft | 399 kts | 323° |
| 2026-05-05 07:44 | 40.60057 | 23.42703 | 35316 ft | 399 kts | 323° |
| 2026-05-05 07:44 | 40.68833 | 23.33717 | 36135 ft | 402 kts | 322° |
| 2026-05-05 07:44 | 40.86372 | 23.15697 | 36038 ft | 399 kts | 322° |
| 2026-05-05 07:45 | 41.03893 | 22.97578 | 36180 ft | 398 kts | 322° |
| 2026-05-05 07:45 | 41.21424 | 22.79288 | 36070 ft | 403 kts | 322° |
| 2026-05-05 07:46 | 41.36883 | 22.58064 | 36110 ft | 398 kts | 314° |
| 2026-05-05 07:46 | 41.51856 | 22.36036 | 36131 ft | 401 kts | 313° |
| 2026-05-05 07:47 | 41.66736 | 22.13942 | 36136 ft | 399 kts | 313° |
| 2026-05-05 07:47 | 41.81537 | 21.91791 | 36144 ft | 398 kts | 313° |
| 2026-05-05 07:48 | 41.96204 | 21.69728 | 36143 ft | 398 kts | 312° |
| 2026-05-05 07:48 | 42.10867 | 21.47479 | 36124 ft | 397 kts | 312° |
| 2026-05-05 07:49 | 42.25314 | 21.24894 | 36134 ft | 398 kts | 311° |
| 2026-05-05 07:49 | 42.39657 | 21.02019 | 36155 ft | 398 kts | 311° |
| 2026-05-05 07:50 | 42.53889 | 20.79127 | 36132 ft | 397 kts | 310° |
| 2026-05-05 07:50 | 42.68095 | 20.56139 | 36134 ft | 397 kts | 310° |
| 2026-05-05 07:51 | 42.82139 | 20.33212 | 36110 ft | 397 kts | 310° |
| 2026-05-05 07:51 | 42.96280 | 20.09942 | 36109 ft | 398 kts | 309° |
| 2026-05-05 07:52 | 43.10368 | 19.86571 | 36116 ft | 399 kts | 309° |
| 2026-05-05 07:52 | 43.24442 | 19.63046 | 36099 ft | 400 kts | 309° |
| 2026-05-05 07:53 | 43.38532 | 19.39296 | 36093 ft | 402 kts | 308° |
| 2026-05-05 07:53 | 43.52665 | 19.15303 | 36091 ft | 403 kts | 307° |
| 2026-05-05 07:54 | 43.67267 | 18.91679 | 36092 ft | 405 kts | 309° |
| 2026-05-05 07:54 | 43.81755 | 18.68000 | 36089 ft | 406 kts | 309° |
| 2026-05-05 07:55 | 43.96342 | 18.44015 | 36093 ft | 407 kts | 308° |
| 2026-05-05 07:55 | 44.10934 | 18.19819 | 36097 ft | 409 kts | 308° |
| 2026-05-05 07:56 | 44.25507 | 17.95435 | 36066 ft | 409 kts | 308° |
| 2026-05-05 07:56 | 44.40132 | 17.70905 | 36079 ft | 412 kts | 309° |
| 2026-05-05 07:57 | 44.55190 | 17.46636 | 36051 ft | 412 kts | 309° |
| 2026-05-05 07:57 | 44.70026 | 17.22304 | 36028 ft | 413 kts | 308° |
| 2026-05-05 07:58 | 44.82481 | 17.01627 | 36033 ft | 414 kts | 308° |
| 2026-05-05 07:58 | 44.99752 | 16.72689 | 36046 ft | 415 kts | 308° |
| 2026-05-05 07:59 | 45.14551 | 16.47608 | 36031 ft | 416 kts | 307° |
| 2026-05-05 07:59 | 45.29066 | 16.22048 | 36037 ft | 416 kts | 306° |
| 2026-05-05 08:00 | 45.43552 | 15.96291 | 36025 ft | 417 kts | 306° |
| 2026-05-05 08:00 | 45.57998 | 15.70376 | 36030 ft | 418 kts | 306° |
| 2026-05-05 08:01 | 45.72425 | 15.44243 | 36012 ft | 419 kts | 306° |
| 2026-05-05 08:01 | 45.87568 | 15.19061 | 36014 ft | 420 kts | 310° |
| 2026-05-05 08:02 | 46.03245 | 14.94090 | 36020 ft | 420 kts | 309° |
| 2026-05-05 08:02 | 46.18851 | 14.68999 | 36018 ft | 420 kts | 309° |
| 2026-05-05 08:03 | 46.31737 | 14.48047 | 36017 ft | 420 kts | 308° |
| 2026-05-05 08:03 | 46.47244 | 14.22673 | 35977 ft | 421 kts | 308° |
| 2026-05-05 08:04 | 46.62779 | 13.97017 | 35984 ft | 423 kts | 308° |
| 2026-05-05 08:04 | 46.80843 | 13.66845 | 35978 ft | 426 kts | 307° |
| 2026-05-05 08:05 | 46.93847 | 13.44926 | 35962 ft | 426 kts | 307° |
| 2026-05-05 08:05 | 47.09341 | 13.18573 | 35936 ft | 427 kts | 307° |
| 2026-05-05 08:06 | 47.24696 | 12.92218 | 35929 ft | 428 kts | 307° |
| 2026-05-05 08:06 | 47.40146 | 12.65429 | 35892 ft | 429 kts | 307° |
| 2026-05-05 08:07 | 47.55516 | 12.38516 | 35869 ft | 427 kts | 306° |
| 2026-05-05 08:07 | 47.69571 | 12.10325 | 35865 ft | 424 kts | 298° |
| 2026-05-05 08:08 | 47.81998 | 11.80527 | 35900 ft | 424 kts | 298° |
| 2026-05-05 08:08 | 47.94318 | 11.50607 | 35919 ft | 423 kts | 297° |
| 2026-05-05 08:09 | 48.06491 | 11.20735 | 35902 ft | 423 kts | 297° |
| 2026-05-05 08:09 | 48.18742 | 10.90345 | 35898 ft | 423 kts | 296° |
| 2026-05-05 08:10 | 48.30762 | 10.60139 | 35886 ft | 424 kts | 296° |
| 2026-05-05 08:10 | 48.42845 | 10.29543 | 35873 ft | 426 kts | 295° |
| 2026-05-05 08:11 | 48.54844 | 9.98672 | 35911 ft | 427 kts | 295° |
| 2026-05-05 08:11 | 48.66816 | 9.67539 | 35878 ft | 428 kts | 295° |
| 2026-05-05 08:12 | 48.81235 | 9.38342 | 35885 ft | 433 kts | 302° |
| 2026-05-05 08:12 | 48.95695 | 9.08979 | 35891 ft | 433 kts | 301° |
| 2026-05-05 08:13 | 49.09977 | 8.79658 | 35860 ft | 434 kts | 301° |
| 2026-05-05 08:13 | 49.24328 | 8.49878 | 35891 ft | 434 kts | 301° |
| 2026-05-05 08:14 | 49.38603 | 8.19941 | 35876 ft | 434 kts | 301° |
| 2026-05-05 08:14 | 49.52783 | 7.89848 | 35874 ft | 434 kts | 300° |
| 2026-05-05 08:15 | 49.66772 | 7.59813 | 35870 ft | 434 kts | 300° |
| 2026-05-05 08:15 | 49.80792 | 7.29357 | 35892 ft | 434 kts | 300° |
| 2026-05-05 08:16 | 49.94697 | 6.98855 | 35886 ft | 433 kts | 299° |
| 2026-05-05 08:16 | 50.08427 | 6.68374 | 35840 ft | 431 kts | 299° |
| 2026-05-05 08:17 | 50.21873 | 6.37570 | 35866 ft | 428 kts | 296° |
| 2026-05-05 08:17 | 50.34197 | 6.05815 | 35876 ft | 427 kts | 296° |
| 2026-05-05 08:18 | 50.46551 | 5.73976 | 35867 ft | 428 kts | 295° |
| 2026-05-05 08:18 | 50.58791 | 5.42013 | 35868 ft | 429 kts | 295° |
| 2026-05-05 08:19 | 50.71030 | 5.09658 | 35887 ft | 430 kts | 295° |
| 2026-05-05 08:19 | 50.83173 | 4.77126 | 35932 ft | 429 kts | 295° |
| 2026-05-05 08:20 | 50.95205 | 4.44538 | 35911 ft | 428 kts | 296° |
| 2026-05-05 08:20 | 51.07090 | 4.11890 | 35937 ft | 428 kts | 295° |
| 2026-05-05 08:21 | 51.18940 | 3.78913 | 35952 ft | 429 kts | 295° |
| 2026-05-05 08:21 | 51.24157 | 3.61935 | 35888 ft | 420 kts | 278° |
| 2026-05-05 08:21 | 51.26491 | 3.43760 | 35927 ft | 419 kts | 278° |
| 2026-05-05 08:22 | 51.31219 | 3.07357 | 35963 ft | 418 kts | 278° |
| 2026-05-05 08:22 | 51.35760 | 2.70943 | 35933 ft | 417 kts | 278° |
| 2026-05-05 08:23 | 51.40211 | 2.34500 | 35950 ft | 418 kts | 278° |
| 2026-05-05 08:23 | 51.44551 | 1.97892 | 35966 ft | 418 kts | 278° |
| 2026-05-05 08:24 | 51.48879 | 1.61377 | 35973 ft | 420 kts | 278° |
| 2026-05-05 08:24 | 51.53039 | 1.24444 | 35964 ft | 422 kts | 278° |
| 2026-05-05 08:25 | 51.57091 | 0.87199 | 36004 ft | 423 kts | 278° |
| 2026-05-05 08:25 | 51.61045 | 0.49867 | 35352 ft | 423 kts | 278° |
| 2026-05-05 08:26 | 51.62946 | 0.31483 | 33684 ft | 408 kts | 277° |
| 2026-05-05 08:26 | 51.65886 | 0.14224 | 31825 ft | 399 kts | 298° |
| 2026-05-05 08:26 | 51.73262 | 0.01012 | 29974 ft | 395 kts | 310° |
| 2026-05-05 08:26 | 51.80679 | -0.11248 | 28119 ft | 387 kts | 310° |
| 2026-05-05 08:27 | 51.88071 | -0.23514 | 26464 ft | 375 kts | 310° |
| 2026-05-05 08:27 | 51.95265 | -0.35510 | 24731 ft | 367 kts | 311° |
| 2026-05-05 08:27 | 52.02299 | -0.47282 | 22948 ft | 359 kts | 312° |
| 2026-05-05 08:27 | 52.09153 | -0.58810 | 21304 ft | 349 kts | 312° |
| 2026-05-05 08:28 | 52.15812 | -0.70072 | 19843 ft | 339 kts | 312° |
| 2026-05-05 08:28 | 52.22423 | -0.81297 | 19807 ft | 349 kts | 312° |
| 2026-05-05 08:28 | 52.30064 | -0.90515 | 19934 ft | 350 kts | 327° |
| 2026-05-05 08:28 | 52.38163 | -0.98595 | 19965 ft | 346 kts | 327° |
| 2026-05-05 08:29 | 52.46273 | -1.06732 | 19960 ft | 346 kts | 327° |
| 2026-05-05 08:29 | 52.54400 | -1.14887 | 19968 ft | 345 kts | 326° |
| 2026-05-05 08:29 | 52.62495 | -1.23057 | 20093 ft | 342 kts | 326° |
| 2026-05-05 08:30 | 52.78219 | -1.39018 | 17387 ft | 324 kts | 325° |
| 2026-05-05 08:30 | 52.85768 | -1.46740 | 16029 ft | 315 kts | 325° |
| 2026-05-05 08:30 | 52.93109 | -1.54306 | 14748 ft | 307 kts | 326° |
| 2026-05-05 08:30 | 53.00157 | -1.61577 | 13518 ft | 300 kts | 326° |
| 2026-05-05 08:31 | 53.06773 | -1.69572 | 12135 ft | 290 kts | 307° |
| 2026-05-05 08:31 | 53.11951 | -1.79708 | 10782 ft | 283 kts | 309° |
| 2026-05-05 08:31 | 53.16822 | -1.89173 | 9409 ft | 277 kts | 309° |
| 2026-05-05 08:31 | 53.18069 | -1.91608 | 9019 ft | 275 kts | 309° |
| 2026-05-05 08:32 | 53.19294 | -1.93998 | 8840 ft | 265 kts | 310° |
| 2026-05-05 08:32 | 53.20470 | -1.96291 | 8709 ft | 254 kts | 310° |
| 2026-05-05 08:32 | 53.21597 | -1.98490 | 8579 ft | 244 kts | 310° |
| 2026-05-05 08:32 | 53.22658 | -2.00614 | 8418 ft | 234 kts | 304° |
| 2026-05-05 08:33 | 53.23403 | -2.02984 | 8160 ft | 229 kts | 288° |
| 2026-05-05 08:33 | 53.23721 | -2.05566 | 8046 ft | 228 kts | 275° |
| 2026-05-05 08:33 | 53.23858 | -2.08227 | 7983 ft | 231 kts | 275° |
| 2026-05-05 08:33 | 53.23992 | -2.10874 | 7907 ft | 230 kts | 275° |
| 2026-05-05 08:34 | 53.24130 | -2.13538 | 7827 ft | 231 kts | 278° |
| 2026-05-05 08:34 | 53.24693 | -2.16010 | 7737 ft | 229 kts | 306° |
| 2026-05-05 08:34 | 53.25846 | -2.17727 | 7672 ft | 219 kts | 332° |
| 2026-05-05 08:34 | 53.27272 | -2.18355 | 7591 ft | 211 kts | 359° |
| 2026-05-05 08:35 | 53.28697 | -2.17877 | 7521 ft | 211 kts | 24° |
| 2026-05-05 08:35 | 53.29988 | -2.16721 | 7449 ft | 211 kts | 26° |
| 2026-05-05 08:35 | 53.31176 | -2.15460 | 7358 ft | 212 kts | 44° |
| 2026-05-05 08:35 | 53.32070 | -2.13498 | 7299 ft | 213 kts | 54° |
| 2026-05-05 08:36 | 53.32891 | -2.11428 | 7217 ft | 213 kts | 55° |
| 2026-05-05 08:36 | 53.33694 | -2.09349 | 7110 ft | 212 kts | 56° |
| 2026-05-05 08:36 | 53.34491 | -2.07289 | 6859 ft | 210 kts | 56° |
| 2026-05-05 08:36 | 53.35289 | -2.05247 | 6632 ft | 208 kts | 56° |
| 2026-05-05 08:37 | 53.36063 | -2.03281 | 6527 ft | 198 kts | 53° |
| 2026-05-05 08:37 | 53.37061 | -2.01828 | 6390 ft | 186 kts | 23° |
| 2026-05-05 08:37 | 53.38268 | -2.01356 | 6253 ft | 174 kts | 2° |
| 2026-05-05 08:37 | 53.39435 | -2.01200 | 6119 ft | 167 kts | 3° |
| 2026-05-05 08:38 | 53.40566 | -2.01039 | 5960 ft | 160 kts | 2° |
| 2026-05-05 08:38 | 53.41670 | -2.00880 | 5756 ft | 158 kts | 4° |
| 2026-05-05 08:38 | 53.42767 | -2.00745 | 5511 ft | 158 kts | 358° |
| 2026-05-05 08:38 | 53.43990 | -2.01323 | 5210 ft | 155 kts | 329° |
| 2026-05-05 08:39 | 53.45256 | -2.04117 | 4716 ft | 154 kts | 284° |
| 2026-05-05 08:39 | 53.44924 | -2.07603 | 4200 ft | 159 kts | 239° |
| 2026-05-05 08:39 | 53.43546 | -2.10507 | 3757 ft | 158 kts | 235° |
| 2026-05-05 08:39 | 53.42151 | -2.13417 | 3072 ft | 170 kts | 235° |
| 2026-05-05 08:40 | 53.40607 | -2.16632 | 1779 ft | 182 kts | 233° |
| 2026-05-05 08:40 | 53.39849 | -2.18202 | 1499 ft | 163 kts | 234° |
| 2026-05-05 08:40 | 53.39174 | -2.19604 | 1275 ft | 147 kts | 234° |
| 2026-05-05 08:40 | 53.38548 | -2.20904 | 1073 ft | 141 kts | 235° |
| 2026-05-05 08:41 | 53.37940 | -2.22168 | 870 ft | 138 kts | 235° |
| 2026-05-05 08:41 | 53.37343 | -2.23408 | 689 ft | 136 kts | 235° |
| 2026-05-05 08:41 | 53.36761 | -2.24616 | 507 ft | 134 kts | 233° |
| 2026-05-05 08:41 | 53.36176 | -2.25830 | 327 ft | 134 kts | 234° |
| 2026-05-05 08:42 | 53.35631 | -2.26981 | 260 ft | 99 kts | 230° |
| 2026-05-05 08:42 | 53.35368 | -2.27509 | 243 ft | 34 kts | 231° |
| 2026-05-05 08:42 | 53.35264 | -2.27835 | 237 ft | 32 kts | 253° |
| 2026-05-05 08:42 | 53.35236 | -2.28084 | 233 ft | 9 kts | 261° |
| 2026-05-05 08:43 | 53.35230 | -2.28160 | 231 ft | 6 kts | 265° |
| 2026-05-05 08:43 | 53.35244 | -2.28214 | 232 ft | 5 kts | 314° |
| 2026-05-05 08:43 | 53.35312 | -2.28207 | 233 ft | 12 kts | 26° |
| 2026-05-05 08:43 | 53.35387 | -2.28166 | 236 ft | 11 kts | 9° |
| 2026-05-05 08:44 | 53.35464 | -2.28143 | 236 ft | 14 kts | 17° |
| 2026-05-05 08:44 | 53.35563 | -2.28029 | 236 ft | 20 kts | 48° |
| 2026-05-05 08:44 | 53.35665 | -2.27888 | 243 ft | 18 kts | 15° |
| 2026-05-05 08:44 | 53.35775 | -2.27865 | 249 ft | 14 kts | 5° |
| 2026-05-05 08:45 | 53.35868 | -2.27853 | 254 ft | 13 kts | 4° |
| 2026-05-05 08:45 | 53.35965 | -2.27868 | 255 ft | 17 kts | 334° |
| 2026-05-05 08:45 | 53.36068 | -2.28014 | 255 ft | 22 kts | 320° |
| 2026-05-05 08:45 | 53.36188 | -2.28203 | 255 ft | 24 kts | 314° |
| 2026-05-05 08:46 | 53.36304 | -2.28401 | 255 ft | 24 kts | 315° |
| 2026-05-05 08:46 | 53.36442 | -2.28529 | 255 ft | 23 kts | 319° |
| 2026-05-05 08:46 | 53.36551 | -2.28718 | 255 ft | 23 kts | 315° |
| 2026-05-05 08:46 | 53.36650 | -2.28897 | 255 ft | 21 kts | 346° |
| 2026-05-05 08:47 | 53.36757 | -2.29042 | 255 ft | 19 kts | 345° |
| 2026-05-05 08:47 | 53.36863 | -2.28946 | 255 ft | 18 kts | 46° |
| 2026-05-05 08:47 | 53.36874 | -2.28851 | 255 ft | 8 kts | 136° |
| 2026-05-05 08:47 | 53.36864 | -2.28834 | 255 ft | 0 kts | 135° |